sensor_id;sensor_type;location;lat;lon;timestamp;pressure;altitude;pressure_sealevel;temperature;humidity
62402;BME280;48440;51.224;22.506;2023-05-23T00:02:13;99156.69;;;15.13;59.85
62402;BME280;48440;51.224;22.506;2023-05-23T00:04:39;99148.78;;;15.11;60.47
62402;BME280;48440;51.224;22.506;2023-05-23T00:07:04;99150.00;;;15.00;60.97
62402;BME280;48440;51.224;22.506;2023-05-23T00:09:30;99144.78;;;15.04;60.95
62402;BME280;48440;51.224;22.506;2023-05-23T00:11:55;99146.63;;;15.08;60.85
62402;BME280;48440;51.224;22.506;2023-05-23T00:14:21;99139.06;;;15.00;61.06
62402;BME280;48440;51.224;22.506;2023-05-23T00:16:48;99143.69;;;15.05;60.30
62402;BME280;48440;51.224;22.506;2023-05-23T00:19:14;99131.16;;;14.99;60.35
62402;BME280;48440;51.224;22.506;2023-05-23T00:21:41;99137.41;;;15.04;60.43
62402;BME280;48440;51.224;22.506;2023-05-23T00:24:08;99138.25;;;15.00;60.99
62402;BME280;48440;51.224;22.506;2023-05-23T00:26:34;99140.00;;;14.85;61.48
62402;BME280;48440;51.224;22.506;2023-05-23T00:28:59;99138.66;;;14.83;61.63
62402;BME280;48440;51.224;22.506;2023-05-23T00:31:25;99134.53;;;14.85;61.75
62402;BME280;48440;51.224;22.506;2023-05-23T00:33:50;99127.41;;;14.89;62.00
62402;BME280;48440;51.224;22.506;2023-05-23T00:36:15;99123.03;;;14.88;61.82
62402;BME280;48440;51.224;22.506;2023-05-23T00:38:42;99126.59;;;14.89;61.49
62402;BME280;48440;51.224;22.506;2023-05-23T00:41:10;99128.78;;;14.87;61.34
62402;BME280;48440;51.224;22.506;2023-05-23T00:43:36;99129.72;;;14.77;62.02
62402;BME280;48440;51.224;22.506;2023-05-23T00:46:01;99131.00;;;14.85;61.60
62402;BME280;48440;51.224;22.506;2023-05-23T00:48:27;99134.53;;;14.85;61.48
62402;BME280;48440;51.224;22.506;2023-05-23T00:50:54;99137.94;;;14.72;61.53
62402;BME280;48440;51.224;22.506;2023-05-23T00:53:20;99134.44;;;14.67;61.87
62402;BME280;48440;51.224;22.506;2023-05-23T00:55:46;99136.09;;;14.63;61.78
62402;BME280;48440;51.224;22.506;2023-05-23T00:58:12;99134.75;;;14.60;62.19
62402;BME280;48440;51.224;22.506;2023-05-23T01:00:40;99133.38;;;14.63;62.07
62402;BME280;48440;51.224;22.506;2023-05-23T01:03:05;99128.16;;;14.66;61.75
62402;BME280;48440;51.224;22.506;2023-05-23T01:05:31;99130.63;;;14.63;62.33
62402;BME280;48440;51.224;22.506;2023-05-23T01:07:56;99132.28;;;14.64;62.02
62402;BME280;48440;51.224;22.506;2023-05-23T01:10:24;99135.25;;;14.67;61.58
62402;BME280;48440;51.224;22.506;2023-05-23T01:20:48;99133.66;;;14.61;61.43
62402;BME280;48440;51.224;22.506;2023-05-23T01:23:35;99129.00;;;14.62;61.44
62402;BME280;48440;51.224;22.506;2023-05-23T01:29:14;99133.38;;;14.63;61.36
62402;BME280;48440;51.224;22.506;2023-05-23T01:31:43;99127.13;;;14.57;61.67
62402;BME280;48440;51.224;22.506;2023-05-23T01:34:11;99120.94;;;14.46;61.62
62402;BME280;48440;51.224;22.506;2023-05-23T01:36:40;99122.03;;;14.40;61.80
62402;BME280;48440;51.224;22.506;2023-05-23T01:39:06;99116.34;;;14.32;61.94
62402;BME280;48440;51.224;22.506;2023-05-23T01:41:32;99120.44;;;14.34;62.06
62402;BME280;48440;51.224;22.506;2023-05-23T01:43:57;99114.13;;;14.39;62.43
62402;BME280;48440;51.224;22.506;2023-05-23T01:46:23;99111.16;;;14.35;62.31
62402;BME280;48440;51.224;22.506;2023-05-23T01:48:50;99110.88;;;14.37;61.88
62402;BME280;48440;51.224;22.506;2023-05-23T01:51:16;99112.22;;;14.39;61.89
62402;BME280;48440;51.224;22.506;2023-05-23T01:53:42;99105.97;;;14.34;62.47
62402;BME280;48440;51.224;22.506;2023-05-23T01:56:08;99107.06;;;14.33;62.31
62402;BME280;48440;51.224;22.506;2023-05-23T01:58:33;99108.75;;;14.29;62.66
62402;BME280;48440;51.224;22.506;2023-05-23T02:00:59;99106.59;;;14.25;62.46
62402;BME280;48440;51.224;22.506;2023-05-23T02:03:24;99100.31;;;14.25;62.37
62402;BME280;48440;51.224;22.506;2023-05-23T02:05:50;99099.22;;;14.26;62.60
62402;BME280;48440;51.224;22.506;2023-05-23T02:08:15;99103.88;;;14.25;62.68
62402;BME280;48440;51.224;22.506;2023-05-23T02:10:41;99101.97;;;14.21;62.36
62402;BME280;48440;51.224;22.506;2023-05-23T02:13:06;99098.47;;;14.15;62.46
62402;BME280;48440;51.224;22.506;2023-05-23T02:15:32;99091.88;;;14.21;62.30
62402;BME280;48440;51.224;22.506;2023-05-23T02:17:57;99098.06;;;14.32;61.57
62402;BME280;48440;51.224;22.506;2023-05-23T02:20:23;99094.22;;;14.38;61.29
62402;BME280;48440;51.224;22.506;2023-05-23T02:22:48;99095.31;;;14.42;61.08
62402;BME280;48440;51.224;22.506;2023-05-23T02:25:14;99088.22;;;14.41;60.84
62402;BME280;48440;51.224;22.506;2023-05-23T02:27:40;99097.47;;;14.45;60.51
62402;BME280;48440;51.224;22.506;2023-05-23T02:30:05;99095.03;;;14.44;60.72
62402;BME280;48440;51.224;22.506;2023-05-23T02:32:31;99090.38;;;14.44;60.85
62402;BME280;48440;51.224;22.506;2023-05-23T02:34:57;99092.00;;;14.40;60.62
62402;BME280;48440;51.224;22.506;2023-05-23T02:37:23;99092.00;;;14.45;60.63
62402;BME280;48440;51.224;22.506;2023-05-23T02:39:49;99098.53;;;14.49;60.06
62402;BME280;48440;51.224;22.506;2023-05-23T02:42:14;99093.31;;;14.53;59.87
62402;BME280;48440;51.224;22.506;2023-05-23T02:44:40;99095.47;;;14.56;59.87
62402;BME280;48440;51.224;22.506;2023-05-23T02:47:05;99095.47;;;14.56;59.89
62402;BME280;48440;51.224;22.506;2023-05-23T02:49:31;99091.69;;;14.52;60.27
62402;BME280;48440;51.224;22.506;2023-05-23T02:51:57;99088.44;;;14.50;60.61
62402;BME280;48440;51.224;22.506;2023-05-23T02:54:22;99095.03;;;14.44;60.83
62402;BME280;48440;51.224;22.506;2023-05-23T02:56:47;99094.78;;;14.35;61.41
62402;BME280;48440;51.224;22.506;2023-05-23T02:59:14;99091.88;;;14.21;62.01
62402;BME280;48440;51.224;22.506;2023-05-23T03:01:40;99098.78;;;14.09;62.52
62402;BME280;48440;51.224;22.506;2023-05-23T03:04:05;99106.38;;;14.17;61.89
62402;BME280;48440;51.224;22.506;2023-05-23T03:06:31;99106.69;;;14.10;62.29
62402;BME280;48440;51.224;22.506;2023-05-23T03:08:58;99097.41;;;14.11;62.54
62402;BME280;48440;51.224;22.506;2023-05-23T03:11:24;99092.50;;;14.08;62.25
62402;BME280;48440;51.224;22.506;2023-05-23T03:13:49;99087.38;;;14.02;62.76
62402;BME280;48440;51.224;22.506;2023-05-23T03:16:15;99093.03;;;14.10;62.94
62402;BME280;48440;51.224;22.506;2023-05-23T03:18:40;99094.94;;;14.15;62.48
62402;BME280;48440;51.224;22.506;2023-05-23T03:21:06;99090.25;;;14.20;62.02
62402;BME280;48440;51.224;22.506;2023-05-23T03:23:32;99097.53;;;14.30;61.98
62402;BME280;48440;51.224;22.506;2023-05-23T03:25:57;99084.91;;;14.39;60.89
62402;BME280;48440;51.224;22.506;2023-05-23T03:28:24;99086.03;;;14.43;60.59
62402;BME280;48440;51.224;22.506;2023-05-23T03:30:49;99084.88;;;14.49;60.52
62402;BME280;48440;51.224;22.506;2023-05-23T03:33:14;99083.25;;;14.48;61.36
62402;BME280;48440;51.224;22.506;2023-05-23T03:35:40;99090.00;;;14.56;61.19
62402;BME280;48440;51.224;22.506;2023-05-23T03:38:06;99088.28;;;14.65;60.04
62402;BME280;48440;51.224;22.506;2023-05-23T03:40:31;99075.47;;;14.66;60.51
62402;BME280;48440;51.224;22.506;2023-05-23T03:43:04;99077.34;;;14.70;60.40
62402;BME280;48440;51.224;22.506;2023-05-23T03:45:33;99071.81;;;14.75;59.85
62402;BME280;48440;51.224;22.506;2023-05-23T03:47:59;99080.41;;;14.92;59.58
62402;BME280;48440;51.224;22.506;2023-05-23T03:50:25;99073.44;;;15.05;59.24
62402;BME280;48440;51.224;22.506;2023-05-23T03:52:51;99071.53;;;15.06;59.61
62402;BME280;48440;51.224;22.506;2023-05-23T03:55:16;99071.94;;;15.18;59.33
62402;BME280;48440;51.224;22.506;2023-05-23T03:57:47;99071.16;;;15.36;58.65
62402;BME280;48440;51.224;22.506;2023-05-23T04:00:13;99072.75;;;15.42;58.34
62402;BME280;48440;51.224;22.506;2023-05-23T04:02:38;99070.34;;;15.59;58.68
62402;BME280;48440;51.224;22.506;2023-05-23T04:05:05;99060.06;;;15.75;57.77
62402;BME280;48440;51.224;22.506;2023-05-23T04:07:31;99062.34;;;15.87;57.61
62402;BME280;48440;51.224;22.506;2023-05-23T04:09:59;99064.41;;;15.95;57.86
62402;BME280;48440;51.224;22.506;2023-05-23T04:12:25;99059.63;;;16.06;57.24
62402;BME280;48440;51.224;22.506;2023-05-23T04:14:50;99053.75;;;16.12;56.67
62402;BME280;48440;51.224;22.506;2023-05-23T04:17:16;99060.94;;;16.27;57.03
62402;BME280;48440;51.224;22.506;2023-05-23T04:19:43;99059.16;;;16.36;56.37
62402;BME280;48440;51.224;22.506;2023-05-23T04:22:08;99052.69;;;16.46;56.22
62402;BME280;48440;51.224;22.506;2023-05-23T04:24:34;99059.94;;;16.55;55.67
62402;BME280;48440;51.224;22.506;2023-05-23T04:26:59;99062.06;;;16.58;55.93
62402;BME280;48440;51.224;22.506;2023-05-23T04:29:25;99061.91;;;16.69;55.40
62402;BME280;48440;51.224;22.506;2023-05-23T04:31:52;99053.44;;;16.84;54.88
62402;BME280;48440;51.224;22.506;2023-05-23T04:34:19;99057.81;;;16.99;54.22
62402;BME280;48440;51.224;22.506;2023-05-23T04:36:46;99054.47;;;17.15;54.09
62402;BME280;48440;51.224;22.506;2023-05-23T04:39:12;99049.22;;;17.33;53.58
62402;BME280;48440;51.224;22.506;2023-05-23T04:41:38;99052.38;;;17.40;53.34
62402;BME280;48440;51.224;22.506;2023-05-23T04:44:04;99044.84;;;17.59;53.71
62402;BME280;48440;51.224;22.506;2023-05-23T04:46:30;99042.84;;;17.65;52.85
62402;BME280;48440;51.224;22.506;2023-05-23T04:48:56;99043.72;;;17.74;52.99
62402;BME280;48440;51.224;22.506;2023-05-23T04:51:23;99037.28;;;17.92;52.22
62402;BME280;48440;51.224;22.506;2023-05-23T04:53:49;99037.53;;;18.04;51.75
62402;BME280;48440;51.224;22.506;2023-05-23T04:56:15;99040.00;;;18.28;51.66
62402;BME280;48440;51.224;22.506;2023-05-23T04:58:47;99038.03;;;18.42;50.46
62402;BME280;48440;51.224;22.506;2023-05-23T05:01:12;99032.84;;;18.41;49.03
62402;BME280;48440;51.224;22.506;2023-05-23T05:03:38;99034.31;;;18.47;48.75
62402;BME280;48440;51.224;22.506;2023-05-23T05:06:04;99034.81;;;18.49;47.96
62402;BME280;48440;51.224;22.506;2023-05-23T05:08:30;99031.91;;;18.68;48.11
62402;BME280;48440;51.224;22.506;2023-05-23T05:10:56;99030.13;;;18.94;48.05
62402;BME280;48440;51.224;22.506;2023-05-23T05:13:21;99031.63;;;19.09;47.15
62402;BME280;48440;51.224;22.506;2023-05-23T05:15:46;99034.75;;;19.24;46.93
62402;BME280;48440;51.224;22.506;2023-05-23T05:18:12;99031.75;;;19.43;47.87
62402;BME280;48440;51.224;22.506;2023-05-23T05:20:40;99030.31;;;19.46;46.85
62402;BME280;48440;51.224;22.506;2023-05-23T05:23:05;99025.97;;;19.53;46.65
62402;BME280;48440;51.224;22.506;2023-05-23T05:25:34;99033.97;;;19.72;47.56
62402;BME280;48440;51.224;22.506;2023-05-23T05:28:01;99028.31;;;19.94;46.63
62402;BME280;48440;51.224;22.506;2023-05-23T05:30:35;99028.31;;;20.12;46.86
62402;BME280;48440;51.224;22.506;2023-05-23T05:33:02;99020.84;;;20.29;47.35
62402;BME280;48440;51.224;22.506;2023-05-23T05:35:30;99023.31;;;20.48;46.86
62402;BME280;48440;51.224;22.506;2023-05-23T05:37:55;99030.94;;;20.51;45.91
62402;BME280;48440;51.224;22.506;2023-05-23T05:40:21;99026.03;;;20.65;45.32
62402;BME280;48440;51.224;22.506;2023-05-23T05:42:46;99015.97;;;20.78;45.35
62402;BME280;48440;51.224;22.506;2023-05-23T05:45:12;99016.22;;;20.85;44.81
62402;BME280;48440;51.224;22.506;2023-05-23T05:47:37;99019.28;;;21.01;44.98
62402;BME280;48440;51.224;22.506;2023-05-23T05:50:04;99020.81;;;21.19;45.51
62402;BME280;48440;51.224;22.506;2023-05-23T05:52:30;99026.53;;;21.23;44.56
62402;BME280;48440;51.224;22.506;2023-05-23T05:55:06;99016.63;;;21.22;44.42
62402;BME280;48440;51.224;22.506;2023-05-23T05:57:32;99022.22;;;21.34;44.87
62402;BME280;48440;51.224;22.506;2023-05-23T05:59:58;99009.34;;;21.47;45.24
62402;BME280;48440;51.224;22.506;2023-05-23T06:02:23;99016.91;;;21.58;45.00
62402;BME280;48440;51.224;22.506;2023-05-23T06:04:49;99017.47;;;21.73;44.49
62402;BME280;48440;51.224;22.506;2023-05-23T06:07:15;99010.88;;;21.86;44.16
62402;BME280;48440;51.224;22.506;2023-05-23T06:09:40;99004.13;;;22.04;43.83
62402;BME280;48440;51.224;22.506;2023-05-23T06:12:06;99002.06;;;22.13;41.11
62402;BME280;48440;51.224;22.506;2023-05-23T06:14:32;99005.03;;;22.29;40.75
62402;BME280;48440;51.224;22.506;2023-05-23T06:16:57;99003.03;;;22.50;40.74
62402;BME280;48440;51.224;22.506;2023-05-23T06:19:22;99000.63;;;22.61;39.11
62402;BME280;48440;51.224;22.506;2023-05-23T06:21:49;99004.22;;;22.61;38.60
62402;BME280;48440;51.224;22.506;2023-05-23T06:24:14;99009.78;;;22.74;39.02
62402;BME280;48440;51.224;22.506;2023-05-23T06:26:39;99004.09;;;22.91;39.93
62402;BME280;48440;51.224;22.506;2023-05-23T06:29:05;99012.41;;;23.03;39.52
62402;BME280;48440;51.224;22.506;2023-05-23T06:31:30;99014.63;;;23.10;37.76
62402;BME280;48440;51.224;22.506;2023-05-23T06:33:56;99004.13;;;23.15;36.86
62402;BME280;48440;51.224;22.506;2023-05-23T06:36:21;99012.91;;;23.29;36.71
62402;BME280;48440;51.224;22.506;2023-05-23T06:38:47;99007.72;;;23.52;36.51
62402;BME280;48440;51.224;22.506;2023-05-23T06:41:12;99011.06;;;23.70;36.60
62402;BME280;48440;51.224;22.506;2023-05-23T06:43:38;99019.34;;;23.82;36.16
62402;BME280;48440;51.224;22.506;2023-05-23T06:46:03;99010.81;;;23.87;34.02
62402;BME280;48440;51.224;22.506;2023-05-23T06:48:29;99001.88;;;23.94;34.53
62402;BME280;48440;51.224;22.506;2023-05-23T06:50:54;99002.56;;;24.03;33.91
62402;BME280;48440;51.224;22.506;2023-05-23T06:53:20;99002.97;;;24.17;34.48
62402;BME280;48440;51.224;22.506;2023-05-23T06:55:45;98996.72;;;24.32;34.41
62402;BME280;48440;51.224;22.506;2023-05-23T06:58:11;98999.63;;;24.52;34.87
62402;BME280;48440;51.224;22.506;2023-05-23T07:00:36;98992.97;;;24.68;32.98
62402;BME280;48440;51.224;22.506;2023-05-23T07:03:02;98992.88;;;24.81;33.67
62402;BME280;48440;51.224;22.506;2023-05-23T07:05:28;98988.94;;;24.82;31.94
62402;BME280;48440;51.224;22.506;2023-05-23T07:07:53;98989.91;;;24.74;30.74
62402;BME280;48440;51.224;22.506;2023-05-23T07:10:19;98983.56;;;24.73;30.83
62402;BME280;48440;51.224;22.506;2023-05-23T07:12:46;98983.13;;;24.87;31.67
62402;BME280;48440;51.224;22.506;2023-05-23T07:15:11;98987.81;;;24.98;31.74
62402;BME280;48440;51.224;22.506;2023-05-23T07:17:39;98976.53;;;25.07;31.29
62402;BME280;48440;51.224;22.506;2023-05-23T07:20:05;98979.56;;;25.02;30.48
62402;BME280;48440;51.224;22.506;2023-05-23T07:22:31;98983.72;;;25.08;31.10
62402;BME280;48440;51.224;22.506;2023-05-23T07:24:56;98969.97;;;25.31;30.58
62402;BME280;48440;51.224;22.506;2023-05-23T07:27:22;98974.28;;;25.44;31.65
62402;BME280;48440;51.224;22.506;2023-05-23T07:29:47;98973.69;;;25.54;32.00
62402;BME280;48440;51.224;22.506;2023-05-23T07:32:13;98972.19;;;25.57;30.63
62402;BME280;48440;51.224;22.506;2023-05-23T07:34:39;98971.94;;;25.46;29.38
62402;BME280;48440;51.224;22.506;2023-05-23T07:37:05;98981.22;;;25.54;30.13
62402;BME280;48440;51.224;22.506;2023-05-23T07:39:31;98978.53;;;25.57;30.02
62402;BME280;48440;51.224;22.506;2023-05-23T07:41:57;98977.78;;;25.76;29.64
62402;BME280;48440;51.224;22.506;2023-05-23T07:44:22;98973.94;;;25.81;29.12
62402;BME280;48440;51.224;22.506;2023-05-23T07:46:47;98974.66;;;25.78;28.68
62402;BME280;48440;51.224;22.506;2023-05-23T07:49:13;98974.09;;;25.88;30.11
62402;BME280;48440;51.224;22.506;2023-05-23T07:51:38;98972.47;;;25.87;28.48
62402;BME280;48440;51.224;22.506;2023-05-23T07:54:04;98967.28;;;25.85;28.43
62402;BME280;48440;51.224;22.506;2023-05-23T07:56:29;98966.63;;;25.92;29.00
62402;BME280;48440;51.224;22.506;2023-05-23T07:58:55;98973.94;;;26.00;29.57
62402;BME280;48440;51.224;22.506;2023-05-23T08:01:20;98981.78;;;25.94;28.04
62402;BME280;48440;51.224;22.506;2023-05-23T08:03:46;98972.19;;;25.92;28.53
62402;BME280;48440;51.224;22.506;2023-05-23T08:06:11;98975.09;;;25.99;28.02
62402;BME280;48440;51.224;22.506;2023-05-23T08:08:37;98971.31;;;26.07;29.44
62402;BME280;48440;51.224;22.506;2023-05-23T08:11:02;98971.91;;;26.16;28.37
62402;BME280;48440;51.224;22.506;2023-05-23T08:13:29;98969.06;;;26.13;27.92
62402;BME280;48440;51.224;22.506;2023-05-23T08:15:54;98969.56;;;26.18;28.68
62402;BME280;48440;51.224;22.506;2023-05-23T08:18:20;98972.72;;;26.36;27.99
62402;BME280;48440;51.224;22.506;2023-05-23T08:20:46;98971.66;;;26.25;26.54
62402;BME280;48440;51.224;22.506;2023-05-23T08:23:11;98963.50;;;26.32;27.87
62402;BME280;48440;51.224;22.506;2023-05-23T08:25:38;98963.38;;;26.44;28.87
62402;BME280;48440;51.224;22.506;2023-05-23T08:28:03;98963.88;;;26.50;27.54
62402;BME280;48440;51.224;22.506;2023-05-23T08:30:29;98966.53;;;26.65;28.48
62402;BME280;48440;51.224;22.506;2023-05-23T08:32:55;98956.16;;;26.62;27.04
62402;BME280;48440;51.224;22.506;2023-05-23T08:35:22;98969.19;;;26.58;26.46
62402;BME280;48440;51.224;22.506;2023-05-23T08:37:47;98965.34;;;26.44;25.92
62402;BME280;48440;51.224;22.506;2023-05-23T08:40:23;98967.56;;;25.99;26.73
62402;BME280;48440;51.224;22.506;2023-05-23T08:42:51;98967.59;;;26.19;27.53
62402;BME280;48440;51.224;22.506;2023-05-23T08:45:17;98965.50;;;26.31;26.75
62402;BME280;48440;51.224;22.506;2023-05-23T08:47:44;98967.16;;;26.17;26.15
62402;BME280;48440;51.224;22.506;2023-05-23T08:50:15;98959.03;;;26.08;26.95
62402;BME280;48440;51.224;22.506;2023-05-23T08:52:45;98963.25;;;25.83;28.01
62402;BME280;48440;51.224;22.506;2023-05-23T08:55:12;98958.81;;;25.97;28.31
62402;BME280;48440;51.224;22.506;2023-05-23T08:57:40;98959.69;;;26.21;28.59
62402;BME280;48440;51.224;22.506;2023-05-23T09:00:13;98951.44;;;26.44;29.33
62402;BME280;48440;51.224;22.506;2023-05-23T09:02:44;98954.53;;;26.61;29.64
62402;BME280;48440;51.224;22.506;2023-05-23T09:05:10;98951.63;;;26.77;27.56
62402;BME280;48440;51.224;22.506;2023-05-23T09:07:36;98950.16;;;26.60;27.33
62402;BME280;48440;51.224;22.506;2023-05-23T09:10:06;98954.22;;;26.44;27.36
62402;BME280;48440;51.224;22.506;2023-05-23T09:12:33;98953.47;;;25.89;25.60
62402;BME280;48440;51.224;22.506;2023-05-23T09:15:01;98960.03;;;26.00;26.25
62402;BME280;48440;51.224;22.506;2023-05-23T09:17:26;98948.88;;;25.96;26.83
62402;BME280;48440;51.224;22.506;2023-05-23T09:19:52;98948.13;;;25.99;27.77
62402;BME280;48440;51.224;22.506;2023-05-23T09:22:24;98952.72;;;25.57;27.22
62402;BME280;48440;51.224;22.506;2023-05-23T09:24:51;98941.81;;;25.48;28.20
62402;BME280;48440;51.224;22.506;2023-05-23T09:27:17;98951.41;;;25.66;27.59
62402;BME280;48440;51.224;22.506;2023-05-23T09:29:43;98938.97;;;25.80;27.83
62402;BME280;48440;51.224;22.506;2023-05-23T09:32:13;98943.88;;;25.67;27.91
62402;BME280;48440;51.224;22.506;2023-05-23T09:34:40;98927.22;;;25.86;27.90
62402;BME280;48440;51.224;22.506;2023-05-23T09:37:06;98924.72;;;26.00;27.76
62402;BME280;48440;51.224;22.506;2023-05-23T09:39:36;98923.84;;;26.16;28.32
62402;BME280;48440;51.224;22.506;2023-05-23T09:42:02;98915.28;;;26.24;27.77
62402;BME280;48440;51.224;22.506;2023-05-23T09:44:28;98925.44;;;26.17;27.46
62402;BME280;48440;51.224;22.506;2023-05-23T09:46:54;98924.00;;;26.23;27.14
62402;BME280;48440;51.224;22.506;2023-05-23T09:49:19;98915.44;;;26.12;24.78
62402;BME280;48440;51.224;22.506;2023-05-23T09:51:56;98918.31;;;25.61;25.58
62402;BME280;48440;51.224;22.506;2023-05-23T09:54:22;98915.09;;;25.59;26.20
62402;BME280;48440;51.224;22.506;2023-05-23T09:56:48;98911.63;;;25.82;28.44
62402;BME280;48440;51.224;22.506;2023-05-23T09:59:17;98912.59;;;25.70;26.54
62402;BME280;48440;51.224;22.506;2023-05-23T10:01:50;98919.66;;;25.32;26.69
62402;BME280;48440;51.224;22.506;2023-05-23T10:04:20;98909.94;;;25.07;26.40
62402;BME280;48440;51.224;22.506;2023-05-23T10:06:53;98911.97;;;25.10;26.85
62402;BME280;48440;51.224;22.506;2023-05-23T10:09:22;98912.88;;;24.98;26.40
62402;BME280;48440;51.224;22.506;2023-05-23T10:14:23;98912.22;;;25.21;27.33
62402;BME280;48440;51.224;22.506;2023-05-23T10:17:24;98909.22;;;25.10;26.30
62402;BME280;48440;51.224;22.506;2023-05-23T10:19:59;98906.38;;;25.26;27.20
62402;BME280;48440;51.224;22.506;2023-05-23T10:22:35;98897.56;;;25.20;26.68
62402;BME280;48440;51.224;22.506;2023-05-23T10:25:02;98896.13;;;25.11;26.85
62402;BME280;48440;51.224;22.506;2023-05-23T10:27:30;98894.63;;;25.13;26.78
62402;BME280;48440;51.224;22.506;2023-05-23T10:29:57;98894.69;;;25.17;26.84
62402;BME280;48440;51.224;22.506;2023-05-23T10:32:25;98897.97;;;25.22;27.06
62402;BME280;48440;51.224;22.506;2023-05-23T10:37:41;98893.66;;;25.41;27.05
62402;BME280;48440;51.224;22.506;2023-05-23T10:43:00;98892.50;;;25.26;27.52
62402;BME280;48440;51.224;22.506;2023-05-23T10:45:27;98886.47;;;25.05;26.98
62402;BME280;48440;51.224;22.506;2023-05-23T10:47:53;98894.00;;;24.88;27.84
62402;BME280;48440;51.224;22.506;2023-05-23T10:50:35;98886.28;;;24.82;28.38
62402;BME280;48440;51.224;22.506;2023-05-23T10:53:03;98877.06;;;24.93;28.46
62402;BME280;48440;51.224;22.506;2023-05-23T10:55:33;98877.16;;;24.97;28.66
62402;BME280;48440;51.224;22.506;2023-05-23T10:58:16;98881.47;;;24.94;28.60
62402;BME280;48440;51.224;22.506;2023-05-23T11:00:59;98881.63;;;25.01;28.58
62402;BME280;48440;51.224;22.506;2023-05-23T11:03:47;98872.59;;;24.89;27.44
62402;BME280;48440;51.224;22.506;2023-05-23T11:06:39;98876.53;;;24.88;28.61
62402;BME280;48440;51.224;22.506;2023-05-23T11:09:13;98876.97;;;24.90;27.97
62402;BME280;48440;51.224;22.506;2023-05-23T11:12:02;98870.44;;;24.82;27.12
62402;BME280;48440;51.224;22.506;2023-05-23T11:14:33;98865.69;;;24.83;27.39
62402;BME280;48440;51.224;22.506;2023-05-23T11:17:29;98864.44;;;24.80;28.49
62402;BME280;48440;51.224;22.506;2023-05-23T11:22:27;98862.31;;;24.42;28.91
62402;BME280;48440;51.224;22.506;2023-05-23T11:24:54;98849.16;;;24.39;29.39
62402;BME280;48440;51.224;22.506;2023-05-23T11:27:33;98855.06;;;24.38;30.32
62402;BME280;48440;51.224;22.506;2023-05-23T11:30:06;98857.66;;;24.46;29.56
62402;BME280;48440;51.224;22.506;2023-05-23T11:32:32;98851.38;;;24.49;29.05
62402;BME280;48440;51.224;22.506;2023-05-23T11:35:02;98838.59;;;24.60;29.38
62402;BME280;48440;51.224;22.506;2023-05-23T11:37:29;98858.53;;;24.50;28.60
62402;BME280;48440;51.224;22.506;2023-05-23T11:39:55;98841.81;;;24.31;27.56
62402;BME280;48440;51.224;22.506;2023-05-23T11:42:21;98858.34;;;24.43;28.44
62402;BME280;48440;51.224;22.506;2023-05-23T11:44:49;98851.78;;;24.20;27.52
62402;BME280;48440;51.224;22.506;2023-05-23T11:47:15;98855.78;;;24.07;27.97
62402;BME280;48440;51.224;22.506;2023-05-23T11:49:43;98844.09;;;24.13;28.38
62402;BME280;48440;51.224;22.506;2023-05-23T11:52:12;98849.53;;;24.10;28.85
62402;BME280;48440;51.224;22.506;2023-05-23T11:54:41;98847.28;;;23.99;28.33
62402;BME280;48440;51.224;22.506;2023-05-23T11:57:08;98842.53;;;24.00;29.28
62402;BME280;48440;51.224;22.506;2023-05-23T11:59:33;98852.31;;;24.10;28.96
62402;BME280;48440;51.224;22.506;2023-05-23T12:02:01;98832.72;;;24.02;28.39
62402;BME280;48440;51.224;22.506;2023-05-23T12:04:27;98841.84;;;24.03;29.51
62402;BME280;48440;51.224;22.506;2023-05-23T12:06:53;98841.75;;;23.99;29.14
62402;BME280;48440;51.224;22.506;2023-05-23T12:09:18;98832.25;;;24.00;28.82
62402;BME280;48440;51.224;22.506;2023-05-23T12:11:44;98842.19;;;24.01;28.36
62402;BME280;48440;51.224;22.506;2023-05-23T12:14:16;98826.63;;;23.97;28.04
62402;BME280;48440;51.224;22.506;2023-05-23T12:16:44;98827.44;;;23.97;27.90
62402;BME280;48440;51.224;22.506;2023-05-23T12:19:13;98833.69;;;23.94;27.39
62402;BME280;48440;51.224;22.506;2023-05-23T12:21:48;98834.84;;;23.93;28.39
62402;BME280;48440;51.224;22.506;2023-05-23T12:24:18;98836.09;;;23.96;29.00
62402;BME280;48440;51.224;22.506;2023-05-23T12:26:51;98826.97;;;23.95;29.58
62402;BME280;48440;51.224;22.506;2023-05-23T12:29:18;98831.78;;;23.83;28.60
62402;BME280;48440;51.224;22.506;2023-05-23T12:31:47;98820.97;;;23.78;29.14
62402;BME280;48440;51.224;22.506;2023-05-23T12:34:13;98822.25;;;23.68;29.24
62402;BME280;48440;51.224;22.506;2023-05-23T12:36:38;98832.00;;;23.62;26.59
62402;BME280;48440;51.224;22.506;2023-05-23T12:39:04;98823.34;;;23.63;26.32
62402;BME280;48440;51.224;22.506;2023-05-23T12:41:31;98817.59;;;23.56;27.52
62402;BME280;48440;51.224;22.506;2023-05-23T12:43:58;98819.19;;;23.45;27.91
62402;BME280;48440;51.224;22.506;2023-05-23T12:46:25;98808.47;;;23.44;28.50
62402;BME280;48440;51.224;22.506;2023-05-23T12:48:51;98803.91;;;23.35;29.19
62402;BME280;48440;51.224;22.506;2023-05-23T12:51:17;98805.31;;;23.29;30.07
62402;BME280;48440;51.224;22.506;2023-05-23T12:53:42;98798.06;;;23.25;30.76
62402;BME280;48440;51.224;22.506;2023-05-23T12:56:08;98805.41;;;23.33;30.87
62402;BME280;48440;51.224;22.506;2023-05-23T12:58:33;98798.22;;;23.44;30.94
62402;BME280;48440;51.224;22.506;2023-05-23T13:01:00;98794.19;;;23.54;31.54
62402;BME280;48440;51.224;22.506;2023-05-23T13:03:27;98799.13;;;23.60;31.42
62402;BME280;48440;51.224;22.506;2023-05-23T13:05:52;98790.59;;;23.53;30.73
62402;BME280;48440;51.224;22.506;2023-05-23T13:08:18;98794.38;;;23.49;31.33
62402;BME280;48440;51.224;22.506;2023-05-23T13:10:44;98784.81;;;23.46;31.23
62402;BME280;48440;51.224;22.506;2023-05-23T13:13:10;98788.63;;;23.54;31.57